sensor_id;sensor_type;location;lat;lon;timestamp;temperature;humidity
5960;DHT22;3006;50.956;7.002;2023-03-03T00:01:40;5.00;99.90
5960;DHT22;3006;50.956;7.002;2023-03-03T00:04:13;5.00;99.90
5960;DHT22;3006;50.956;7.002;2023-03-03T00:06:44;5.00;99.90
5960;DHT22;3006;50.956;7.002;2023-03-03T00:09:12;5.00;99.90
5960;DHT22;3006;50.956;7.002;2023-03-03T00:11:40;4.90;99.90
5960;DHT22;3006;50.956;7.002;2023-03-03T00:14:17;4.90;99.90
5960;DHT22;3006;50.956;7.002;2023-03-03T00:17:20;4.80;99.90
5960;DHT22;3006;50.956;7.002;2023-03-03T00:20:26;4.70;99.90
5960;DHT22;3006;50.956;7.002;2023-03-03T00:22:59;4.60;99.90
5960;DHT22;3006;50.956;7.002;2023-03-03T00:25:33;4.60;99.90
5960;DHT22;3006;50.956;7.002;2023-03-03T00:28:06;4.60;99.90
5960;DHT22;3006;50.956;7.002;2023-03-03T00:30:40;4.60;99.90
5960;DHT22;3006;50.956;7.002;2023-03-03T00:33:14;4.50;99.90
5960;DHT22;3006;50.956;7.002;2023-03-03T00:35:48;4.50;99.90
5960;DHT22;3006;50.956;7.002;2023-03-03T00:38:17;4.50;99.90
5960;DHT22;3006;50.956;7.002;2023-03-03T00:40:46;4.40;99.90
5960;DHT22;3006;50.956;7.002;2023-03-03T00:43:18;4.40;99.90
5960;DHT22;3006;50.956;7.002;2023-03-03T00:45:47;4.30;99.90
5960;DHT22;3006;50.956;7.002;2023-03-03T00:48:24;4.20;99.90
5960;DHT22;3006;50.956;7.002;2023-03-03T00:50:56;4.30;99.90
5960;DHT22;3006;50.956;7.002;2023-03-03T00:53:26;4.20;99.90
5960;DHT22;3006;50.956;7.002;2023-03-03T00:55:55;4.20;99.90
5960;DHT22;3006;50.956;7.002;2023-03-03T00:58:24;4.20;99.90
5960;DHT22;3006;50.956;7.002;2023-03-03T01:00:54;4.20;99.90
5960;DHT22;3006;50.956;7.002;2023-03-03T01:03:33;4.10;99.90
5960;DHT22;3006;50.956;7.002;2023-03-03T01:06:03;4.10;99.90
5960;DHT22;3006;50.956;7.002;2023-03-03T01:08:31;4.10;99.90
5960;DHT22;3006;50.956;7.002;2023-03-03T01:11:04;4.00;99.90
5960;DHT22;3006;50.956;7.002;2023-03-03T01:13:34;4.00;99.90
5960;DHT22;3006;50.956;7.002;2023-03-03T01:16:04;3.90;99.90
5960;DHT22;3006;50.956;7.002;2023-03-03T01:18:34;3.90;99.90
5960;DHT22;3006;50.956;7.002;2023-03-03T01:21:03;3.80;99.90
5960;DHT22;3006;50.956;7.002;2023-03-03T01:23:32;3.80;99.90
5960;DHT22;3006;50.956;7.002;2023-03-03T01:26:00;3.80;99.90
5960;DHT22;3006;50.956;7.002;2023-03-03T01:28:28;3.80;99.90
5960;DHT22;3006;50.956;7.002;2023-03-03T01:30:59;3.70;99.90
5960;DHT22;3006;50.956;7.002;2023-03-03T01:33:28;3.70;99.90
5960;DHT22;3006;50.956;7.002;2023-03-03T01:35:57;3.70;99.90
5960;DHT22;3006;50.956;7.002;2023-03-03T01:38:27;3.70;99.90
5960;DHT22;3006;50.956;7.002;2023-03-03T01:40:58;3.60;99.90
5960;DHT22;3006;50.956;7.002;2023-03-03T01:43:27;3.60;99.90
5960;DHT22;3006;50.956;7.002;2023-03-03T01:46:33;3.60;99.90
5960;DHT22;3006;50.956;7.002;2023-03-03T01:49:05;3.60;99.90
5960;DHT22;3006;50.956;7.002;2023-03-03T01:51:36;3.60;99.90
5960;DHT22;3006;50.956;7.002;2023-03-03T01:54:11;3.60;99.90
5960;DHT22;3006;50.956;7.002;2023-03-03T01:56:41;3.50;99.90
5960;DHT22;3006;50.956;7.002;2023-03-03T01:59:13;3.50;99.90
5960;DHT22;3006;50.956;7.002;2023-03-03T02:01:42;3.50;99.90
5960;DHT22;3006;50.956;7.002;2023-03-03T02:04:11;3.50;99.90
5960;DHT22;3006;50.956;7.002;2023-03-03T02:06:42;3.40;99.90
5960;DHT22;3006;50.956;7.002;2023-03-03T02:09:16;3.40;99.90
5960;DHT22;3006;50.956;7.002;2023-03-03T02:11:50;3.40;99.90
5960;DHT22;3006;50.956;7.002;2023-03-03T02:14:19;3.40;99.90
5960;DHT22;3006;50.956;7.002;2023-03-03T02:16:47;3.30;99.90
5960;DHT22;3006;50.956;7.002;2023-03-03T02:19:21;3.30;99.90
5960;DHT22;3006;50.956;7.002;2023-03-03T02:21:51;3.30;99.90
5960;DHT22;3006;50.956;7.002;2023-03-03T02:24:26;3.30;99.90
5960;DHT22;3006;50.956;7.002;2023-03-03T02:26:57;3.20;99.90
5960;DHT22;3006;50.956;7.002;2023-03-03T02:29:26;3.20;99.90
5960;DHT22;3006;50.956;7.002;2023-03-03T02:31:55;3.20;99.90
5960;DHT22;3006;50.956;7.002;2023-03-03T02:34:23;3.20;99.90
5960;DHT22;3006;50.956;7.002;2023-03-03T02:36:51;3.10;99.90
5960;DHT22;3006;50.956;7.002;2023-03-03T02:39:21;3.00;99.90
5960;DHT22;3006;50.956;7.002;2023-03-03T02:41:52;3.00;99.90
5960;DHT22;3006;50.956;7.002;2023-03-03T02:44:29;2.90;99.90
5960;DHT22;3006;50.956;7.002;2023-03-03T02:46:58;2.90;99.90
5960;DHT22;3006;50.956;7.002;2023-03-03T02:49:27;2.90;99.90
5960;DHT22;3006;50.956;7.002;2023-03-03T02:51:57;2.80;99.90
5960;DHT22;3006;50.956;7.002;2023-03-03T02:54:27;2.80;99.90
5960;DHT22;3006;50.956;7.002;2023-03-03T02:56:56;2.80;99.90
5960;DHT22;3006;50.956;7.002;2023-03-03T02:59:27;2.80;99.90
5960;DHT22;3006;50.956;7.002;2023-03-03T03:01:59;2.70;99.90
5960;DHT22;3006;50.956;7.002;2023-03-03T03:04:27;2.70;99.90
5960;DHT22;3006;50.956;7.002;2023-03-03T03:06:56;2.70;99.90
5960;DHT22;3006;50.956;7.002;2023-03-03T03:09:26;2.70;99.90
5960;DHT22;3006;50.956;7.002;2023-03-03T03:11:54;2.70;99.90
5960;DHT22;3006;50.956;7.002;2023-03-03T03:14:26;2.70;99.90
5960;DHT22;3006;50.956;7.002;2023-03-03T03:16:55;2.60;99.90
5960;DHT22;3006;50.956;7.002;2023-03-03T03:19:23;2.60;99.90
5960;DHT22;3006;50.956;7.002;2023-03-03T03:21:52;2.60;99.90
5960;DHT22;3006;50.956;7.002;2023-03-03T03:24:20;2.60;99.90
5960;DHT22;3006;50.956;7.002;2023-03-03T03:26:54;2.60;99.90
5960;DHT22;3006;50.956;7.002;2023-03-03T03:29:24;2.60;99.90
5960;DHT22;3006;50.956;7.002;2023-03-03T03:31:54;2.70;99.90
5960;DHT22;3006;50.956;7.002;2023-03-03T03:34:22;2.80;99.90
5960;DHT22;3006;50.956;7.002;2023-03-03T03:36:51;2.70;99.90
5960;DHT22;3006;50.956;7.002;2023-03-03T03:39:21;2.70;99.90
5960;DHT22;3006;50.956;7.002;2023-03-03T03:41:50;2.70;99.90
5960;DHT22;3006;50.956;7.002;2023-03-03T03:44:20;2.70;99.90
5960;DHT22;3006;50.956;7.002;2023-03-03T03:46:49;2.70;99.90
5960;DHT22;3006;50.956;7.002;2023-03-03T03:49:20;2.60;99.90
5960;DHT22;3006;50.956;7.002;2023-03-03T03:51:50;2.60;99.90
5960;DHT22;3006;50.956;7.002;2023-03-03T03:54:22;2.70;99.90
5960;DHT22;3006;50.956;7.002;2023-03-03T03:56:51;2.70;99.90
5960;DHT22;3006;50.956;7.002;2023-03-03T03:59:20;2.70;99.90
5960;DHT22;3006;50.956;7.002;2023-03-03T04:01:48;2.70;99.90
5960;DHT22;3006;50.956;7.002;2023-03-03T04:04:19;2.70;99.90
5960;DHT22;3006;50.956;7.002;2023-03-03T04:06:48;2.70;99.90
5960;DHT22;3006;50.956;7.002;2023-03-03T04:09:16;2.60;99.90
5960;DHT22;3006;50.956;7.002;2023-03-03T04:11:45;2.60;99.90
5960;DHT22;3006;50.956;7.002;2023-03-03T04:14:14;2.60;99.90
5960;DHT22;3006;50.956;7.002;2023-03-03T04:16:42;2.60;99.90
5960;DHT22;3006;50.956;7.002;2023-03-03T04:19:11;2.70;99.90
5960;DHT22;3006;50.956;7.002;2023-03-03T04:21:42;2.70;99.90
5960;DHT22;3006;50.956;7.002;2023-03-03T04:24:10;2.70;99.90
5960;DHT22;3006;50.956;7.002;2023-03-03T04:26:39;2.70;99.90
5960;DHT22;3006;50.956;7.002;2023-03-03T04:29:08;2.60;99.90
5960;DHT22;3006;50.956;7.002;2023-03-03T04:31:38;2.70;99.90
5960;DHT22;3006;50.956;7.002;2023-03-03T04:34:08;2.60;99.90
5960;DHT22;3006;50.956;7.002;2023-03-03T04:36:37;2.70;99.90
5960;DHT22;3006;50.956;7.002;2023-03-03T04:39:07;2.70;99.90
5960;DHT22;3006;50.956;7.002;2023-03-03T04:41:35;2.70;99.90
5960;DHT22;3006;50.956;7.002;2023-03-03T04:44:03;2.70;99.90
5960;DHT22;3006;50.956;7.002;2023-03-03T04:46:31;2.70;99.90
5960;DHT22;3006;50.956;7.002;2023-03-03T04:49:00;2.70;99.90
5960;DHT22;3006;50.956;7.002;2023-03-03T04:51:30;2.70;99.90
5960;DHT22;3006;50.956;7.002;2023-03-03T04:53:58;2.80;99.90
5960;DHT22;3006;50.956;7.002;2023-03-03T04:56:29;2.80;99.90
5960;DHT22;3006;50.956;7.002;2023-03-03T04:58:58;2.80;99.90
5960;DHT22;3006;50.956;7.002;2023-03-03T05:01:27;2.80;99.90
5960;DHT22;3006;50.956;7.002;2023-03-03T05:03:55;2.60;99.90
5960;DHT22;3006;50.956;7.002;2023-03-03T05:06:23;2.60;99.90
5960;DHT22;3006;50.956;7.002;2023-03-03T05:08:51;2.60;99.90
5960;DHT22;3006;50.956;7.002;2023-03-03T05:11:20;2.60;99.90
5960;DHT22;3006;50.956;7.002;2023-03-03T05:13:49;2.70;99.90
5960;DHT22;3006;50.956;7.002;2023-03-03T05:16:18;2.70;99.90
5960;DHT22;3006;50.956;7.002;2023-03-03T05:18:46;2.70;99.90
5960;DHT22;3006;50.956;7.002;2023-03-03T05:21:14;2.70;99.90
5960;DHT22;3006;50.956;7.002;2023-03-03T05:23:42;2.70;99.90
5960;DHT22;3006;50.956;7.002;2023-03-03T05:26:10;2.80;99.90
5960;DHT22;3006;50.956;7.002;2023-03-03T05:28:38;2.80;99.90
5960;DHT22;3006;50.956;7.002;2023-03-03T05:31:08;2.80;99.90
5960;DHT22;3006;50.956;7.002;2023-03-03T05:33:36;2.80;99.90
5960;DHT22;3006;50.956;7.002;2023-03-03T05:36:04;2.80;99.90
5960;DHT22;3006;50.956;7.002;2023-03-03T05:38:32;2.80;99.90
5960;DHT22;3006;50.956;7.002;2023-03-03T05:41:00;2.80;99.90
5960;DHT22;3006;50.956;7.002;2023-03-03T05:43:28;2.80;99.90
5960;DHT22;3006;50.956;7.002;2023-03-03T05:45:57;2.70;99.90
5960;DHT22;3006;50.956;7.002;2023-03-03T05:48:27;2.80;99.90
5960;DHT22;3006;50.956;7.002;2023-03-03T05:50:57;2.80;99.90
5960;DHT22;3006;50.956;7.002;2023-03-03T05:53:25;2.70;99.90
5960;DHT22;3006;50.956;7.002;2023-03-03T05:55:54;2.70;99.90
5960;DHT22;3006;50.956;7.002;2023-03-03T05:58:22;2.70;99.90
5960;DHT22;3006;50.956;7.002;2023-03-03T06:00:50;2.80;99.90
5960;DHT22;3006;50.956;7.002;2023-03-03T06:03:18;2.90;99.90
5960;DHT22;3006;50.956;7.002;2023-03-03T06:05:48;2.90;99.90
5960;DHT22;3006;50.956;7.002;2023-03-03T06:08:16;2.90;99.90
5960;DHT22;3006;50.956;7.002;2023-03-03T06:10:44;2.90;99.90
5960;DHT22;3006;50.956;7.002;2023-03-03T06:13:14;2.90;99.90
5960;DHT22;3006;50.956;7.002;2023-03-03T06:15:42;2.90;99.90
5960;DHT22;3006;50.956;7.002;2023-03-03T06:18:10;2.80;99.90
5960;DHT22;3006;50.956;7.002;2023-03-03T06:20:38;2.80;99.90
5960;DHT22;3006;50.956;7.002;2023-03-03T06:23:08;2.80;99.90
5960;DHT22;3006;50.956;7.002;2023-03-03T06:25:38;2.90;99.90
5960;DHT22;3006;50.956;7.002;2023-03-03T06:28:06;3.00;99.90
5960;DHT22;3006;50.956;7.002;2023-03-03T06:30:34;3.00;99.90
5960;DHT22;3006;50.956;7.002;2023-03-03T06:33:02;3.00;99.90
5960;DHT22;3006;50.956;7.002;2023-03-03T06:35:30;2.90;99.90
5960;DHT22;3006;50.956;7.002;2023-03-03T06:37:58;2.90;99.90
5960;DHT22;3006;50.956;7.002;2023-03-03T06:40:28;2.80;99.90
5960;DHT22;3006;50.956;7.002;2023-03-03T06:42:56;2.80;99.90
5960;DHT22;3006;50.956;7.002;2023-03-03T06:45:24;2.90;99.90
5960;DHT22;3006;50.956;7.002;2023-03-03T06:47:52;2.90;99.90
5960;DHT22;3006;50.956;7.002;2023-03-03T06:50:20;2.90;99.90
5960;DHT22;3006;50.956;7.002;2023-03-03T06:53:01;2.90;99.90
5960;DHT22;3006;50.956;7.002;2023-03-03T06:55:35;2.80;99.90
5960;DHT22;3006;50.956;7.002;2023-03-03T06:58:08;2.90;99.90
5960;DHT22;3006;50.956;7.002;2023-03-03T07:00:40;3.00;99.90
5960;DHT22;3006;50.956;7.002;2023-03-03T07:03:15;3.00;99.90
5960;DHT22;3006;50.956;7.002;2023-03-03T07:05:43;3.00;99.90
5960;DHT22;3006;50.956;7.002;2023-03-03T07:08:13;3.00;99.90
5960;DHT22;3006;50.956;7.002;2023-03-03T07:10:44;3.10;99.90
5960;DHT22;3006;50.956;7.002;2023-03-03T07:13:18;3.10;99.90
5960;DHT22;3006;50.956;7.002;2023-03-03T07:15:48;3.10;99.90
5960;DHT22;3006;50.956;7.002;2023-03-03T07:18:25;3.20;99.90
5960;DHT22;3006;50.956;7.002;2023-03-03T07:20:58;3.20;99.90
5960;DHT22;3006;50.956;7.002;2023-03-03T07:23:28;3.20;99.90
5960;DHT22;3006;50.956;7.002;2023-03-03T07:26:00;3.10;99.90
5960;DHT22;3006;50.956;7.002;2023-03-03T07:28:28;3.00;99.90
5960;DHT22;3006;50.956;7.002;2023-03-03T07:30:59;3.00;99.90
5960;DHT22;3006;50.956;7.002;2023-03-03T07:33:30;3.10;99.90
5960;DHT22;3006;50.956;7.002;2023-03-03T07:36:03;3.10;99.90
5960;DHT22;3006;50.956;7.002;2023-03-03T07:38:35;3.10;99.90
5960;DHT22;3006;50.956;7.002;2023-03-03T07:41:12;3.00;99.90
5960;DHT22;3006;50.956;7.002;2023-03-03T07:43:46;3.20;99.90
5960;DHT22;3006;50.956;7.002;2023-03-03T07:46:24;3.20;99.90
5960;DHT22;3006;50.956;7.002;2023-03-03T07:48:54;3.20;99.90
5960;DHT22;3006;50.956;7.002;2023-03-03T07:51:25;3.30;99.90
5960;DHT22;3006;50.956;7.002;2023-03-03T07:54:10;3.40;99.90
5960;DHT22;3006;50.956;7.002;2023-03-03T07:56:42;3.40;99.90
5960;DHT22;3006;50.956;7.002;2023-03-03T07:59:19;3.30;99.90
5960;DHT22;3006;50.956;7.002;2023-03-03T08:01:50;3.20;99.90
5960;DHT22;3006;50.956;7.002;2023-03-03T08:04:22;3.20;99.90
5960;DHT22;3006;50.956;7.002;2023-03-03T08:06:52;3.20;99.90
5960;DHT22;3006;50.956;7.002;2023-03-03T08:09:43;3.20;99.90
5960;DHT22;3006;50.956;7.002;2023-03-03T08:12:32;3.30;99.90
5960;DHT22;3006;50.956;7.002;2023-03-03T08:15:19;3.40;99.90
5960;DHT22;3006;50.956;7.002;2023-03-03T08:17:49;3.40;99.90
5960;DHT22;3006;50.956;7.002;2023-03-03T08:20:38;3.40;99.90
5960;DHT22;3006;50.956;7.002;2023-03-03T08:23:08;3.40;99.90
5960;DHT22;3006;50.956;7.002;2023-03-03T08:25:36;3.30;99.90
5960;DHT22;3006;50.956;7.002;2023-03-03T08:28:06;3.30;99.90
5960;DHT22;3006;50.956;7.002;2023-03-03T08:30:34;3.40;99.90
5960;DHT22;3006;50.956;7.002;2023-03-03T08:33:03;3.30;99.90
5960;DHT22;3006;50.956;7.002;2023-03-03T08:35:31;3.20;99.90
5960;DHT22;3006;50.956;7.002;2023-03-03T08:37:59;3.30;99.90
5960;DHT22;3006;50.956;7.002;2023-03-03T08:40:27;3.40;99.90
5960;DHT22;3006;50.956;7.002;2023-03-03T08:42:56;3.40;99.90
5960;DHT22;3006;50.956;7.002;2023-03-03T08:45:26;3.40;99.90
5960;DHT22;3006;50.956;7.002;2023-03-03T08:47:54;3.40;99.90
5960;DHT22;3006;50.956;7.002;2023-03-03T08:50:22;3.40;99.90
5960;DHT22;3006;50.956;7.002;2023-03-03T08:52:51;3.40;99.90
5960;DHT22;3006;50.956;7.002;2023-03-03T08:55:19;3.50;99.90
5960;DHT22;3006;50.956;7.002;2023-03-03T08:57:47;3.50;99.90
5960;DHT22;3006;50.956;7.002;2023-03-03T09:00:16;3.50;99.90
5960;DHT22;3006;50.956;7.002;2023-03-03T09:02:46;3.50;99.90
5960;DHT22;3006;50.956;7.002;2023-03-03T09:05:15;3.50;99.90
5960;DHT22;3006;50.956;7.002;2023-03-03T09:07:45;3.50;99.90
5960;DHT22;3006;50.956;7.002;2023-03-03T09:10:17;3.70;99.90
5960;DHT22;3006;50.956;7.002;2023-03-03T09:12:47;3.70;99.90
5960;DHT22;3006;50.956;7.002;2023-03-03T09:15:19;3.60;99.90
5960;DHT22;3006;50.956;7.002;2023-03-03T09:17:49;3.60;99.90
5960;DHT22;3006;50.956;7.002;2023-03-03T09:20:33;3.70;99.90
5960;DHT22;3006;50.956;7.002;2023-03-03T09:23:28;3.70;99.90
5960;DHT22;3006;50.956;7.002;2023-03-03T09:25:57;3.70;99.90
5960;DHT22;3006;50.956;7.002;2023-03-03T09:28:28;3.80;99.90
5960;DHT22;3006;50.956;7.002;2023-03-03T09:30:58;3.80;99.90
5960;DHT22;3006;50.956;7.002;2023-03-03T09:33:37;3.80;99.90
5960;DHT22;3006;50.956;7.002;2023-03-03T09:36:19;3.80;99.90
5960;DHT22;3006;50.956;7.002;2023-03-03T09:38:48;3.80;99.90
5960;DHT22;3006;50.956;7.002;2023-03-03T09:44:50;3.90;99.90
5960;DHT22;3006;50.956;7.002;2023-03-03T09:47:40;4.00;99.90
5960;DHT22;3006;50.956;7.002;2023-03-03T09:50:21;4.10;99.90
5960;DHT22;3006;50.956;7.002;2023-03-03T09:53:01;4.10;99.90
5960;DHT22;3006;50.956;7.002;2023-03-03T09:55:38;4.10;99.90
5960;DHT22;3006;50.956;7.002;2023-03-03T09:58:26;4.10;99.90
5960;DHT22;3006;50.956;7.002;2023-03-03T10:01:05;4.10;99.90
5960;DHT22;3006;50.956;7.002;2023-03-03T10:03:52;4.20;99.90
5960;DHT22;3006;50.956;7.002;2023-03-03T10:06:30;4.20;99.90
5960;DHT22;3006;50.956;7.002;2023-03-03T10:12:19;4.30;99.90
5960;DHT22;3006;50.956;7.002;2023-03-03T10:15:09;4.40;99.90
5960;DHT22;3006;50.956;7.002;2023-03-03T10:17:49;4.40;99.90
5960;DHT22;3006;50.956;7.002;2023-03-03T10:20:45;4.50;99.90
5960;DHT22;3006;50.956;7.002;2023-03-03T10:23:23;4.50;99.90
5960;DHT22;3006;50.956;7.002;2023-03-03T10:26:05;4.60;99.90
5960;DHT22;3006;50.956;7.002;2023-03-03T10:31:55;4.70;99.90
5960;DHT22;3006;50.956;7.002;2023-03-03T10:34:42;4.70;99.90
5960;DHT22;3006;50.956;7.002;2023-03-03T10:37:19;4.70;99.90
5960;DHT22;3006;50.956;7.002;2023-03-03T10:40:04;4.70;99.90
5960;DHT22;3006;50.956;7.002;2023-03-03T10:42:54;4.60;99.90
5960;DHT22;3006;50.956;7.002;2023-03-03T10:45:54;4.60;99.90
5960;DHT22;3006;50.956;7.002;2023-03-03T10:48:45;4.60;99.90
5960;DHT22;3006;50.956;7.002;2023-03-03T10:51:24;4.80;99.90
5960;DHT22;3006;50.956;7.002;2023-03-03T10:54:03;4.90;99.90
5960;DHT22;3006;50.956;7.002;2023-03-03T10:56:45;5.00;99.90
5960;DHT22;3006;50.956;7.002;2023-03-03T10:59:37;5.10;99.90
5960;DHT22;3006;50.956;7.002;2023-03-03T11:02:17;5.10;99.90
5960;DHT22;3006;50.956;7.002;2023-03-03T11:05:17;5.10;99.90
5960;DHT22;3006;50.956;7.002;2023-03-03T11:07:50;5.10;99.90
5960;DHT22;3006;50.956;7.002;2023-03-03T11:10:26;5.20;99.90
5960;DHT22;3006;50.956;7.002;2023-03-03T11:13:05;5.30;99.90
5960;DHT22;3006;50.956;7.002;2023-03-03T11:15:50;5.30;99.90
5960;DHT22;3006;50.956;7.002;2023-03-03T11:18:31;5.40;99.90
5960;DHT22;3006;50.956;7.002;2023-03-03T11:21:11;5.40;99.90
5960;DHT22;3006;50.956;7.002;2023-03-03T11:24:14;5.30;99.90
5960;DHT22;3006;50.956;7.002;2023-03-03T11:27:05;5.30;99.90
5960;DHT22;3006;50.956;7.002;2023-03-03T11:30:04;5.40;99.90
5960;DHT22;3006;50.956;7.002;2023-03-03T11:32:40;5.40;99.90
5960;DHT22;3006;50.956;7.002;2023-03-03T11:35:20;5.30;99.90
5960;DHT22;3006;50.956;7.002;2023-03-03T11:37:57;5.30;99.90
5960;DHT22;3006;50.956;7.002;2023-03-03T11:40:29;5.40;99.90
5960;DHT22;3006;50.956;7.002;2023-03-03T11:43:04;5.30;99.90
5960;DHT22;3006;50.956;7.002;2023-03-03T11:45:41;5.50;99.90
5960;DHT22;3006;50.956;7.002;2023-03-03T11:48:17;5.50;99.90
5960;DHT22;3006;50.956;7.002;2023-03-03T11:50:52;5.60;99.90
5960;DHT22;3006;50.956;7.002;2023-03-03T11:53:35;5.60;99.90
5960;DHT22;3006;50.956;7.002;2023-03-03T11:56:13;5.70;99.90
5960;DHT22;3006;50.956;7.002;2023-03-03T11:58:47;5.70;99.90
5960;DHT22;3006;50.956;7.002;2023-03-03T12:01:22;5.80;99.90
5960;DHT22;3006;50.956;7.002;2023-03-03T12:03:55;5.80;99.90
5960;DHT22;3006;50.956;7.002;2023-03-03T12:06:32;5.80;99.90
5960;DHT22;3006;50.956;7.002;2023-03-03T12:09:29;5.90;99.90
5960;DHT22;3006;50.956;7.002;2023-03-03T12:12:04;5.80;99.90
5960;DHT22;3006;50.956;7.002;2023-03-03T12:18:01;6.20;99.90
5960;DHT22;3006;50.956;7.002;2023-03-03T12:20:37;6.20;99.90
5960;DHT22;3006;50.956;7.002;2023-03-03T12:23:34;6.30;99.90
5960;DHT22;3006;50.956;7.002;2023-03-03T12:26:09;6.30;99.90
5960;DHT22;3006;50.956;7.002;2023-03-03T12:28:42;6.30;99.90
5960;DHT22;3006;50.956;7.002;2023-03-03T12:31:47;6.20;99.90
5960;DHT22;3006;50.956;7.002;2023-03-03T12:34:25;6.20;99.90
5960;DHT22;3006;50.956;7.002;2023-03-03T12:37:08;6.30;99.90
5960;DHT22;3006;50.956;7.002;2023-03-03T12:40:02;6.30;99.90
5960;DHT22;3006;50.956;7.002;2023-03-03T12:42:41;6.30;99.90
5960;DHT22;3006;50.956;7.002;2023-03-03T12:45:24;6.20;99.90
5960;DHT22;3006;50.956;7.002;2023-03-03T12:47:59;6.30;99.90
5960;DHT22;3006;50.956;7.002;2023-03-03T12:50:38;6.40;99.90
5960;DHT22;3006;50.956;7.002;2023-03-03T12:53:21;6.60;99.90
5960;DHT22;3006;50.956;7.002;2023-03-03T12:55:53;6.60;99.90
5960;DHT22;3006;50.956;7.002;2023-03-03T12:58:30;6.50;99.90
5960;DHT22;3006;50.956;7.002;2023-03-03T13:01:12;6.50;99.90
5960;DHT22;3006;50.956;7.002;2023-03-03T13:03:48;6.70;99.90
5960;DHT22;3006;50.956;7.002;2023-03-03T13:06:27;6.90;99.90
5960;DHT22;3006;50.956;7.002;2023-03-03T13:09:06;6.90;99.90
5960;DHT22;3006;50.956;7.002;2023-03-03T13:12:06;7.00;99.90
5960;DHT22;3006;50.956;7.002;2023-03-03T13:14:42;6.70;99.90
5960;DHT22;3006;50.956;7.002;2023-03-03T13:17:20;6.60;99.90
5960;DHT22;3006;50.956;7.002;2023-03-03T13:19:54;6.60;99.90
5960;DHT22;3006;50.956;7.002;2023-03-03T13:22:44;6.50;99.90
5960;DHT22;3006;50.956;7.002;2023-03-03T13:25:34;6.60;99.90
5960;DHT22;3006;50.956;7.002;2023-03-03T13:28:11;6.70;99.90
5960;DHT22;3006;50.956;7.002;2023-03-03T13:30:46;6.80;99.90
5960;DHT22;3006;50.956;7.002;2023-03-03T13:33:19;6.70;99.90
5960;DHT22;3006;50.956;7.002;2023-03-03T13:35:53;6.80;99.90
5960;DHT22;3006;50.956;7.002;2023-03-03T13:38:25;6.70;99.90
5960;DHT22;3006;50.956;7.002;2023-03-03T13:40:58;6.80;99.90
5960;DHT22;3006;50.956;7.002;2023-03-03T13:43:31;6.90;99.90
5960;DHT22;3006;50.956;7.002;2023-03-03T13:46:07;6.80;99.90
5960;DHT22;3006;50.956;7.002;2023-03-03T13:48:52;6.80;99.90
5960;DHT22;3006;50.956;7.002;2023-03-03T13:51:38;6.80;99.90
5960;DHT22;3006;50.956;7.002;2023-03-03T13:54:20;6.80;99.90
5960;DHT22;3006;50.956;7.002;2023-03-03T13:57:06;6.90;99.90
5960;DHT22;3006;50.956;7.002;2023-03-03T13:59:44;7.20;99.90
5960;DHT22;3006;50.956;7.002;2023-03-03T14:02:38;7.50;99.90
5960;DHT22;3006;50.956;7.002;2023-03-03T14:05:14;7.70;99.90
5960;DHT22;3006;50.956;7.002;2023-03-03T14:07:48;8.00;99.90
5960;DHT22;3006;50.956;7.002;2023-03-03T14:10:23;8.40;99.90
5960;DHT22;3006;50.956;7.002;2023-03-03T14:13:01;8.30;99.90
5960;DHT22;3006;50.956;7.002;2023-03-03T14:15:33;8.00;99.90
5960;DHT22;3006;50.956;7.002;2023-03-03T14:18:27;8.10;99.90
5960;DHT22;3006;50.956;7.002;2023-03-03T14:20:59;8.50;99.90
5960;DHT22;3006;50.956;7.002;2023-03-03T14:23:38;9.20;99.90
5960;DHT22;3006;50.956;7.002;2023-03-03T14:26:10;9.70;99.90
5960;DHT22;3006;50.956;7.002;2023-03-03T14:28:40;10.10;99.90
5960;DHT22;3006;50.956;7.002;2023-03-03T14:31:16;10.70;99.90
5960;DHT22;3006;50.956;7.002;2023-03-03T14:33:56;11.00;99.90
5960;DHT22;3006;50.956;7.002;2023-03-03T14:36:27;11.00;99.90
5960;DHT22;3006;50.956;7.002;2023-03-03T14:38:57;10.30;99.90
5960;DHT22;3006;50.956;7.002;2023-03-03T14:41:39;9.70;99.90
5960;DHT22;3006;50.956;7.002;2023-03-03T14:44:24;9.40;99.90
5960;DHT22;3006;50.956;7.002;2023-03-03T14:47:19;9.40;99.90
5960;DHT22;3006;50.956;7.002;2023-03-03T14:50:31;9.50;99.90
5960;DHT22;3006;50.956;7.002;2023-03-03T14:53:09;9.50;99.90
5960;DHT22;3006;50.956;7.002;2023-03-03T14:55:39;8.90;99.90
5960;DHT22;3006;50.956;7.002;2023-03-03T14:58:27;8.40;99.90
5960;DHT22;3006;50.956;7.002;2023-03-03T15:01:13;7.80;99.90
5960;DHT22;3006;50.956;7.002;2023-03-03T15:03:47;7.80;99.90
5960;DHT22;3006;50.956;7.002;2023-03-03T15:06:34;7.40;99.90
5960;DHT22;3006;50.956;7.002;2023-03-03T15:09:26;7.20;99.90
5960;DHT22;3006;50.956;7.002;2023-03-03T15:11:56;7.00;99.90
5960;DHT22;3006;50.956;7.002;2023-03-03T15:14:30;6.90;99.90
5960;DHT22;3006;50.956;7.002;2023-03-03T15:17:16;6.90;99.90
5960;DHT22;3006;50.956;7.002;2023-03-03T15:25:58;6.90;99.90
5960;DHT22;3006;50.956;7.002;2023-03-03T15:28:35;6.90;99.90
5960;DHT22;3006;50.956;7.002;2023-03-03T15:31:16;6.80;99.90
5960;DHT22;3006;50.956;7.002;2023-03-03T15:33:52;6.70;99.90
5960;DHT22;3006;50.956;7.002;2023-03-03T15:36:33;6.70;99.90
5960;DHT22;3006;50.956;7.002;2023-03-03T15:39:15;6.60;99.90
5960;DHT22;3006;50.956;7.002;2023-03-03T15:41:53;6.60;99.90
5960;DHT22;3006;50.956;7.002;2023-03-03T15:44:31;6.50;99.90
5960;DHT22;3006;50.956;7.002;2023-03-03T15:47:27;6.50;99.90
5960;DHT22;3006;50.956;7.002;2023-03-03T15:50:14;6.30;99.90
5960;DHT22;3006;50.956;7.002;2023-03-03T15:52:55;6.30;99.90
5960;DHT22;3006;50.956;7.002;2023-03-03T15:55:31;6.30;99.90
5960;DHT22;3006;50.956;7.002;2023-03-03T15:58:20;6.20;99.90
5960;DHT22;3006;50.956;7.002;2023-03-03T16:00:57;6.20;99.90
5960;DHT22;3006;50.956;7.002;2023-03-03T16:03:34;6.20;99.90
5960;DHT22;3006;50.956;7.002;2023-03-03T16:06:06;6.20;99.90
5960;DHT22;3006;50.956;7.002;2023-03-03T16:08:44;6.20;99.90
5960;DHT22;3006;50.956;7.002;2023-03-03T16:11:20;6.10;99.90
5960;DHT22;3006;50.956;7.002;2023-03-03T16:14:00;6.10;99.90
5960;DHT22;3006;50.956;7.002;2023-03-03T16:16:38;6.00;99.90
5960;DHT22;3006;50.956;7.002;2023-03-03T16:19:19;6.00;99.90
5960;DHT22;3006;50.956;7.002;2023-03-03T16:22:13;6.00;99.90
5960;DHT22;3006;50.956;7.002;2023-03-03T16:24:58;6.00;99.90
5960;DHT22;3006;50.956;7.002;2023-03-03T16:27:35;5.90;99.90
5960;DHT22;3006;50.956;7.002;2023-03-03T16:30:22;5.90;99.90
5960;DHT22;3006;50.956;7.002;2023-03-03T16:32:59;5.90;99.90
5960;DHT22;3006;50.956;7.002;2023-03-03T16:35:37;5.90;99.90
5960;DHT22;3006;50.956;7.002;2023-03-03T16:38:10;5.90;99.90
5960;DHT22;3006;50.956;7.002;2023-03-03T16:40:44;5.90;99.90
5960;DHT22;3006;50.956;7.002;2023-03-03T16:43:20;5.90;99.90
5960;DHT22;3006;50.956;7.002;2023-03-03T16:45:49;5.90;99.90
5960;DHT22;3006;50.956;7.002;2023-03-03T16:48:21;5.90;99.90
5960;DHT22;3006;50.956;7.002;2023-03-03T16:51:22;5.90;99.90
5960;DHT22;3006;50.956;7.002;2023-03-03T16:54:02;5.90;99.90
5960;DHT22;3006;50.956;7.002;2023-03-03T16:56:37;5.80;99.90
5960;DHT22;3006;50.956;7.002;2023-03-03T16:59:51;5.80;99.90
5960;DHT22;3006;50.956;7.002;2023-03-03T17:02:51;5.80;99.90
5960;DHT22;3006;50.956;7.002;2023-03-03T17:05:32;5.80;99.90
5960;DHT22;3006;50.956;7.002;2023-03-03T17:08:15;5.80;99.90
5960;DHT22;3006;50.956;7.002;2023-03-03T17:10:51;5.80;99.90
5960;DHT22;3006;50.956;7.002;2023-03-03T17:13:46;5.80;99.90
5960;DHT22;3006;50.956;7.002;2023-03-03T17:16:23;5.70;99.90
5960;DHT22;3006;50.956;7.002;2023-03-03T17:19:03;5.70;99.90
5960;DHT22;3006;50.956;7.002;2023-03-03T17:21:45;5.70;99.90
5960;DHT22;3006;50.956;7.002;2023-03-03T17:24:29;5.80;99.90
5960;DHT22;3006;50.956;7.002;2023-03-03T17:27:06;5.80;99.90
5960;DHT22;3006;50.956;7.002;2023-03-03T17:29:48;5.70;99.90